sensor_id;sensor_type;location;lat;lon;timestamp;P1;durP1;ratioP1;P2;durP2;ratioP2
66927;SDS011;59882;45.624;11.698;2023-11-19T00:00:28;61.07;;;33.90;;
66927;SDS011;59882;45.624;11.698;2023-11-19T00:02:54;54.08;;;30.95;;
66927;SDS011;59882;45.624;11.698;2023-11-19T00:05:19;55.60;;;33.53;;
66927;SDS011;59882;45.624;11.698;2023-11-19T00:07:45;47.17;;;29.60;;
66927;SDS011;59882;45.624;11.698;2023-11-19T00:10:12;43.17;;;26.13;;
66927;SDS011;59882;45.624;11.698;2023-11-19T00:12:44;45.17;;;26.38;;
66927;SDS011;59882;45.624;11.698;2023-11-19T00:15:12;48.22;;;27.98;;
66927;SDS011;59882;45.624;11.698;2023-11-19T00:17:38;41.07;;;25.57;;
66927;SDS011;59882;45.624;11.698;2023-11-19T00:20:14;43.13;;;27.05;;
66927;SDS011;59882;45.624;11.698;2023-11-19T00:22:41;42.78;;;26.73;;
66927;SDS011;59882;45.624;11.698;2023-11-19T00:25:07;41.58;;;26.10;;
66927;SDS011;59882;45.624;11.698;2023-11-19T00:27:34;47.03;;;28.33;;
66927;SDS011;59882;45.624;11.698;2023-11-19T00:29:59;47.07;;;24.80;;
66927;SDS011;59882;45.624;11.698;2023-11-19T00:32:25;47.72;;;27.77;;
66927;SDS011;59882;45.624;11.698;2023-11-19T00:34:51;41.27;;;26.97;;
66927;SDS011;59882;45.624;11.698;2023-11-19T00:37:17;42.95;;;27.70;;
66927;SDS011;59882;45.624;11.698;2023-11-19T00:39:42;47.20;;;27.17;;
66927;SDS011;59882;45.624;11.698;2023-11-19T00:42:09;42.75;;;27.17;;
66927;SDS011;59882;45.624;11.698;2023-11-19T00:44:38;41.75;;;26.25;;
66927;SDS011;59882;45.624;11.698;2023-11-19T00:47:04;43.75;;;27.02;;
66927;SDS011;59882;45.624;11.698;2023-11-19T00:49:30;40.90;;;25.07;;
66927;SDS011;59882;45.624;11.698;2023-11-19T00:51:57;47.33;;;27.02;;
66927;SDS011;59882;45.624;11.698;2023-11-19T00:54:24;45.42;;;26.10;;
66927;SDS011;59882;45.624;11.698;2023-11-19T00:56:51;43.88;;;26.13;;
66927;SDS011;59882;45.624;11.698;2023-11-19T00:59:17;41.70;;;26.20;;
66927;SDS011;59882;45.624;11.698;2023-11-19T01:01:43;39.85;;;26.05;;
66927;SDS011;59882;45.624;11.698;2023-11-19T01:04:08;44.60;;;26.43;;
66927;SDS011;59882;45.624;11.698;2023-11-19T01:06:34;36.80;;;25.20;;
66927;SDS011;59882;45.624;11.698;2023-11-19T01:09:00;38.97;;;25.57;;
66927;SDS011;59882;45.624;11.698;2023-11-19T01:11:26;39.75;;;24.08;;
66927;SDS011;59882;45.624;11.698;2023-11-19T01:13:51;39.87;;;25.43;;
66927;SDS011;59882;45.624;11.698;2023-11-19T01:16:17;38.77;;;25.83;;
66927;SDS011;59882;45.624;11.698;2023-11-19T01:18:44;40.75;;;25.48;;
66927;SDS011;59882;45.624;11.698;2023-11-19T01:21:11;41.90;;;25.52;;
66927;SDS011;59882;45.624;11.698;2023-11-19T01:23:37;43.23;;;26.37;;
66927;SDS011;59882;45.624;11.698;2023-11-19T01:26:03;42.55;;;27.73;;
66927;SDS011;59882;45.624;11.698;2023-11-19T01:28:30;49.03;;;31.02;;
66927;SDS011;59882;45.624;11.698;2023-11-19T01:30:56;44.83;;;28.60;;
66927;SDS011;59882;45.624;11.698;2023-11-19T01:33:21;40.92;;;26.13;;
66927;SDS011;59882;45.624;11.698;2023-11-19T01:35:47;40.50;;;26.43;;
66927;SDS011;59882;45.624;11.698;2023-11-19T01:38:13;38.43;;;23.63;;
66927;SDS011;59882;45.624;11.698;2023-11-19T01:40:38;43.13;;;27.08;;
66927;SDS011;59882;45.624;11.698;2023-11-19T01:43:04;46.10;;;26.83;;
66927;SDS011;59882;45.624;11.698;2023-11-19T01:45:30;42.83;;;27.63;;
66927;SDS011;59882;45.624;11.698;2023-11-19T01:47:57;38.10;;;25.93;;
66927;SDS011;59882;45.624;11.698;2023-11-19T01:50:25;44.08;;;25.85;;
66927;SDS011;59882;45.624;11.698;2023-11-19T01:52:52;39.58;;;26.05;;
66927;SDS011;59882;45.624;11.698;2023-11-19T01:55:20;41.65;;;26.30;;
66927;SDS011;59882;45.624;11.698;2023-11-19T01:57:47;44.33;;;27.40;;
66927;SDS011;59882;45.624;11.698;2023-11-19T02:00:14;45.33;;;26.77;;
66927;SDS011;59882;45.624;11.698;2023-11-19T02:02:41;40.13;;;26.58;;
66927;SDS011;59882;45.624;11.698;2023-11-19T02:05:08;42.53;;;27.88;;
66927;SDS011;59882;45.624;11.698;2023-11-19T02:07:35;43.85;;;27.23;;
66927;SDS011;59882;45.624;11.698;2023-11-19T02:10:01;48.27;;;26.53;;
66927;SDS011;59882;45.624;11.698;2023-11-19T02:12:30;43.20;;;26.25;;
66927;SDS011;59882;45.624;11.698;2023-11-19T02:14:59;40.00;;;24.60;;
66927;SDS011;59882;45.624;11.698;2023-11-19T02:17:28;38.15;;;25.35;;
66927;SDS011;59882;45.624;11.698;2023-11-19T02:19:56;39.07;;;23.00;;
66927;SDS011;59882;45.624;11.698;2023-11-19T02:22:22;36.45;;;23.67;;
66927;SDS011;59882;45.624;11.698;2023-11-19T02:24:47;37.60;;;23.80;;
66927;SDS011;59882;45.624;11.698;2023-11-19T02:27:28;39.63;;;24.25;;
66927;SDS011;59882;45.624;11.698;2023-11-19T02:30:25;37.13;;;24.05;;
66927;SDS011;59882;45.624;11.698;2023-11-19T02:33:00;37.15;;;22.38;;
66927;SDS011;59882;45.624;11.698;2023-11-19T02:35:30;38.55;;;23.65;;
66927;SDS011;59882;45.624;11.698;2023-11-19T02:37:57;37.60;;;21.97;;
66927;SDS011;59882;45.624;11.698;2023-11-19T02:40:24;36.60;;;22.67;;
66927;SDS011;59882;45.624;11.698;2023-11-19T02:42:50;41.85;;;24.05;;
66927;SDS011;59882;45.624;11.698;2023-11-19T02:45:20;39.70;;;23.42;;
66927;SDS011;59882;45.624;11.698;2023-11-19T02:47:50;38.47;;;23.67;;
66927;SDS011;59882;45.624;11.698;2023-11-19T02:50:17;39.83;;;23.40;;
66927;SDS011;59882;45.624;11.698;2023-11-19T02:52:49;36.25;;;23.52;;
66927;SDS011;59882;45.624;11.698;2023-11-19T02:55:16;37.40;;;23.52;;
66927;SDS011;59882;45.624;11.698;2023-11-19T02:57:43;35.47;;;22.80;;
66927;SDS011;59882;45.624;11.698;2023-11-19T03:00:14;34.90;;;22.58;;
66927;SDS011;59882;45.624;11.698;2023-11-19T03:02:46;36.90;;;23.47;;
66927;SDS011;59882;45.624;11.698;2023-11-19T03:05:13;36.70;;;23.73;;
66927;SDS011;59882;45.624;11.698;2023-11-19T03:07:40;35.05;;;21.23;;
66927;SDS011;59882;45.624;11.698;2023-11-19T03:10:08;36.95;;;22.48;;
66927;SDS011;59882;45.624;11.698;2023-11-19T03:12:34;41.00;;;23.60;;
66927;SDS011;59882;45.624;11.698;2023-11-19T03:15:00;37.23;;;22.70;;
66927;SDS011;59882;45.624;11.698;2023-11-19T03:17:26;33.83;;;22.33;;
66927;SDS011;59882;45.624;11.698;2023-11-19T03:19:51;35.57;;;22.43;;
66927;SDS011;59882;45.624;11.698;2023-11-19T03:22:17;35.87;;;21.97;;
66927;SDS011;59882;45.624;11.698;2023-11-19T03:24:42;31.63;;;20.73;;
66927;SDS011;59882;45.624;11.698;2023-11-19T03:27:08;38.13;;;24.07;;
66927;SDS011;59882;45.624;11.698;2023-11-19T03:29:34;36.63;;;22.50;;
66927;SDS011;59882;45.624;11.698;2023-11-19T03:31:59;41.97;;;22.87;;
66927;SDS011;59882;45.624;11.698;2023-11-19T03:34:25;36.50;;;22.57;;
66927;SDS011;59882;45.624;11.698;2023-11-19T03:36:51;34.25;;;21.33;;
66927;SDS011;59882;45.624;11.698;2023-11-19T03:39:16;33.10;;;20.37;;
66927;SDS011;59882;45.624;11.698;2023-11-19T03:41:45;35.75;;;22.08;;
66927;SDS011;59882;45.624;11.698;2023-11-19T03:44:12;35.85;;;23.20;;
66927;SDS011;59882;45.624;11.698;2023-11-19T03:46:37;33.77;;;22.23;;
66927;SDS011;59882;45.624;11.698;2023-11-19T03:49:03;31.70;;;21.43;;
66927;SDS011;59882;45.624;11.698;2023-11-19T03:51:29;34.50;;;21.05;;
66927;SDS011;59882;45.624;11.698;2023-11-19T03:53:55;35.92;;;23.13;;
66927;SDS011;59882;45.624;11.698;2023-11-19T03:56:20;31.67;;;19.43;;
66927;SDS011;59882;45.624;11.698;2023-11-19T03:58:46;31.88;;;20.75;;
66927;SDS011;59882;45.624;11.698;2023-11-19T04:01:12;38.27;;;20.57;;
66927;SDS011;59882;45.624;11.698;2023-11-19T04:03:40;31.60;;;20.98;;
66927;SDS011;59882;45.624;11.698;2023-11-19T04:06:06;34.83;;;21.10;;
66927;SDS011;59882;45.624;11.698;2023-11-19T04:08:32;33.50;;;20.57;;
66927;SDS011;59882;45.624;11.698;2023-11-19T04:10:58;30.90;;;20.48;;
66927;SDS011;59882;45.624;11.698;2023-11-19T04:13:24;31.60;;;19.77;;
66927;SDS011;59882;45.624;11.698;2023-11-19T04:15:50;35.77;;;21.27;;
66927;SDS011;59882;45.624;11.698;2023-11-19T04:18:16;37.77;;;21.57;;
66927;SDS011;59882;45.624;11.698;2023-11-19T04:20:41;34.22;;;22.42;;
66927;SDS011;59882;45.624;11.698;2023-11-19T04:23:08;34.57;;;20.33;;
66927;SDS011;59882;45.624;11.698;2023-11-19T04:25:34;30.50;;;19.58;;
66927;SDS011;59882;45.624;11.698;2023-11-19T04:28:00;31.50;;;18.75;;
66927;SDS011;59882;45.624;11.698;2023-11-19T04:30:27;34.30;;;20.20;;
66927;SDS011;59882;45.624;11.698;2023-11-19T04:32:53;32.23;;;19.17;;
66927;SDS011;59882;45.624;11.698;2023-11-19T04:35:18;32.42;;;20.40;;
66927;SDS011;59882;45.624;11.698;2023-11-19T04:37:44;31.90;;;19.67;;
66927;SDS011;59882;45.624;11.698;2023-11-19T04:40:10;38.83;;;19.35;;
66927;SDS011;59882;45.624;11.698;2023-11-19T04:42:37;37.73;;;20.77;;
66927;SDS011;59882;45.624;11.698;2023-11-19T04:45:05;35.53;;;21.08;;
66927;SDS011;59882;45.624;11.698;2023-11-19T04:47:35;36.47;;;21.15;;
66927;SDS011;59882;45.624;11.698;2023-11-19T04:50:04;39.25;;;21.77;;
66927;SDS011;59882;45.624;11.698;2023-11-19T04:52:30;34.13;;;20.45;;
66927;SDS011;59882;45.624;11.698;2023-11-19T04:54:55;33.90;;;19.67;;
66927;SDS011;59882;45.624;11.698;2023-11-19T04:57:21;33.87;;;19.27;;
66927;SDS011;59882;45.624;11.698;2023-11-19T04:59:46;30.73;;;19.50;;
66927;SDS011;59882;45.624;11.698;2023-11-19T05:02:12;29.30;;;18.57;;
66927;SDS011;59882;45.624;11.698;2023-11-19T05:04:42;31.63;;;18.60;;
66927;SDS011;59882;45.624;11.698;2023-11-19T05:07:11;26.77;;;18.27;;
66927;SDS011;59882;45.624;11.698;2023-11-19T05:09:37;30.52;;;18.33;;
66927;SDS011;59882;45.624;11.698;2023-11-19T05:12:03;27.37;;;17.73;;
66927;SDS011;59882;45.624;11.698;2023-11-19T05:14:28;28.38;;;17.63;;
66927;SDS011;59882;45.624;11.698;2023-11-19T05:16:54;36.30;;;18.50;;
66927;SDS011;59882;45.624;11.698;2023-11-19T05:19:19;30.10;;;17.97;;
66927;SDS011;59882;45.624;11.698;2023-11-19T05:21:45;30.73;;;18.17;;
66927;SDS011;59882;45.624;11.698;2023-11-19T05:24:11;27.50;;;17.73;;
66927;SDS011;59882;45.624;11.698;2023-11-19T05:26:37;28.95;;;18.10;;
66927;SDS011;59882;45.624;11.698;2023-11-19T05:29:03;29.90;;;18.08;;
66927;SDS011;59882;45.624;11.698;2023-11-19T05:31:29;27.40;;;16.40;;
66927;SDS011;59882;45.624;11.698;2023-11-19T05:33:55;27.80;;;17.23;;
66927;SDS011;59882;45.624;11.698;2023-11-19T05:36:21;28.93;;;18.47;;
66927;SDS011;59882;45.624;11.698;2023-11-19T05:38:46;29.85;;;17.85;;
66927;SDS011;59882;45.624;11.698;2023-11-19T05:41:12;30.57;;;17.50;;
66927;SDS011;59882;45.624;11.698;2023-11-19T05:43:37;27.83;;;16.73;;
66927;SDS011;59882;45.624;11.698;2023-11-19T05:46:05;30.30;;;18.07;;
66927;SDS011;59882;45.624;11.698;2023-11-19T05:48:31;29.58;;;17.92;;
66927;SDS011;59882;45.624;11.698;2023-11-19T05:50:58;28.17;;;17.50;;
66927;SDS011;59882;45.624;11.698;2023-11-19T05:53:24;26.27;;;16.85;;
66927;SDS011;59882;45.624;11.698;2023-11-19T05:55:50;29.60;;;18.10;;
66927;SDS011;59882;45.624;11.698;2023-11-19T05:58:27;26.10;;;17.00;;
66927;SDS011;59882;45.624;11.698;2023-11-19T06:00:57;28.13;;;17.10;;
66927;SDS011;59882;45.624;11.698;2023-11-19T06:03:25;30.67;;;18.77;;
66927;SDS011;59882;45.624;11.698;2023-11-19T06:05:50;39.07;;;23.93;;
66927;SDS011;59882;45.624;11.698;2023-11-19T06:08:16;42.50;;;24.27;;
66927;SDS011;59882;45.624;11.698;2023-11-19T06:10:42;39.67;;;25.43;;
66927;SDS011;59882;45.624;11.698;2023-11-19T06:13:11;40.75;;;24.50;;
66927;SDS011;59882;45.624;11.698;2023-11-19T06:15:40;39.63;;;23.73;;
66927;SDS011;59882;45.624;11.698;2023-11-19T06:18:07;33.20;;;20.83;;
66927;SDS011;59882;45.624;11.698;2023-11-19T06:20:33;34.47;;;19.55;;
66927;SDS011;59882;45.624;11.698;2023-11-19T06:22:59;37.83;;;22.17;;
66927;SDS011;59882;45.624;11.698;2023-11-19T06:25:25;33.05;;;21.25;;
66927;SDS011;59882;45.624;11.698;2023-11-19T06:27:51;33.03;;;21.73;;
66927;SDS011;59882;45.624;11.698;2023-11-19T06:30:17;35.28;;;22.65;;
66927;SDS011;59882;45.624;11.698;2023-11-19T06:32:44;33.77;;;20.50;;
66927;SDS011;59882;45.624;11.698;2023-11-19T06:35:09;30.38;;;18.92;;
66927;SDS011;59882;45.624;11.698;2023-11-19T06:37:35;31.37;;;20.70;;
66927;SDS011;59882;45.624;11.698;2023-11-19T06:40:03;32.45;;;20.55;;
66927;SDS011;59882;45.624;11.698;2023-11-19T06:42:30;30.70;;;18.85;;
66927;SDS011;59882;45.624;11.698;2023-11-19T06:44:55;27.33;;;19.00;;
66927;SDS011;59882;45.624;11.698;2023-11-19T06:47:22;30.35;;;18.92;;
66927;SDS011;59882;45.624;11.698;2023-11-19T06:49:54;30.80;;;18.38;;
66927;SDS011;59882;45.624;11.698;2023-11-19T06:52:20;28.80;;;17.17;;
66927;SDS011;59882;45.624;11.698;2023-11-19T06:54:46;50.03;;;28.73;;
66927;SDS011;59882;45.624;11.698;2023-11-19T06:57:12;35.53;;;23.08;;
66927;SDS011;59882;45.624;11.698;2023-11-19T06:59:38;35.95;;;21.85;;
66927;SDS011;59882;45.624;11.698;2023-11-19T07:02:04;40.17;;;20.70;;
66927;SDS011;59882;45.624;11.698;2023-11-19T07:04:31;33.47;;;20.05;;
66927;SDS011;59882;45.624;11.698;2023-11-19T07:06:58;34.05;;;19.92;;
66927;SDS011;59882;45.624;11.698;2023-11-19T07:09:24;32.85;;;17.98;;
66927;SDS011;59882;45.624;11.698;2023-11-19T07:11:50;31.77;;;19.45;;
66927;SDS011;59882;45.624;11.698;2023-11-19T07:14:17;29.97;;;18.17;;
66927;SDS011;59882;45.624;11.698;2023-11-19T07:16:43;29.08;;;17.67;;
66927;SDS011;59882;45.624;11.698;2023-11-19T07:19:11;29.95;;;17.70;;
66927;SDS011;59882;45.624;11.698;2023-11-19T07:21:37;32.33;;;16.27;;
66927;SDS011;59882;45.624;11.698;2023-11-19T07:24:09;31.90;;;17.03;;
66927;SDS011;59882;45.624;11.698;2023-11-19T07:26:35;30.55;;;19.10;;
66927;SDS011;59882;45.624;11.698;2023-11-19T07:29:00;37.97;;;19.80;;
66927;SDS011;59882;45.624;11.698;2023-11-19T07:31:26;31.95;;;20.88;;
66927;SDS011;59882;45.624;11.698;2023-11-19T07:33:52;37.43;;;22.00;;
66927;SDS011;59882;45.624;11.698;2023-11-19T07:36:19;33.13;;;21.45;;
66927;SDS011;59882;45.624;11.698;2023-11-19T07:38:45;42.38;;;23.00;;
66927;SDS011;59882;45.624;11.698;2023-11-19T07:41:11;37.10;;;21.77;;
66927;SDS011;59882;45.624;11.698;2023-11-19T07:43:41;41.22;;;26.02;;
66927;SDS011;59882;45.624;11.698;2023-11-19T07:46:10;54.60;;;32.35;;
66927;SDS011;59882;45.624;11.698;2023-11-19T07:48:38;53.95;;;30.90;;
66927;SDS011;59882;45.624;11.698;2023-11-19T07:51:04;53.15;;;28.95;;
66927;SDS011;59882;45.624;11.698;2023-11-19T07:53:30;46.57;;;26.67;;
66927;SDS011;59882;45.624;11.698;2023-11-19T07:55:56;46.42;;;24.65;;
66927;SDS011;59882;45.624;11.698;2023-11-19T07:58:21;35.80;;;20.57;;
66927;SDS011;59882;45.624;11.698;2023-11-19T08:00:47;36.15;;;22.40;;
66927;SDS011;59882;45.624;11.698;2023-11-19T08:03:12;52.20;;;28.90;;
66927;SDS011;59882;45.624;11.698;2023-11-19T08:05:38;57.27;;;29.63;;
66927;SDS011;59882;45.624;11.698;2023-11-19T08:08:04;54.05;;;31.95;;
66927;SDS011;59882;45.624;11.698;2023-11-19T08:10:29;49.72;;;32.20;;
66927;SDS011;59882;45.624;11.698;2023-11-19T08:12:55;38.43;;;23.90;;
66927;SDS011;59882;45.624;11.698;2023-11-19T08:15:21;39.40;;;25.43;;
66927;SDS011;59882;45.624;11.698;2023-11-19T08:17:46;36.00;;;24.45;;
66927;SDS011;59882;45.624;11.698;2023-11-19T08:20:12;36.90;;;22.93;;
66927;SDS011;59882;45.624;11.698;2023-11-19T08:22:38;38.45;;;23.00;;
66927;SDS011;59882;45.624;11.698;2023-11-19T08:25:06;34.63;;;23.10;;
66927;SDS011;59882;45.624;11.698;2023-11-19T08:27:33;58.75;;;34.53;;
66927;SDS011;59882;45.624;11.698;2023-11-19T08:29:58;119.50;;;59.23;;
66927;SDS011;59882;45.624;11.698;2023-11-19T08:32:24;57.53;;;33.38;;
66927;SDS011;59882;45.624;11.698;2023-11-19T08:34:51;71.75;;;40.50;;
66927;SDS011;59882;45.624;11.698;2023-11-19T08:37:16;56.60;;;33.20;;
66927;SDS011;59882;45.624;11.698;2023-11-19T08:39:49;57.40;;;31.85;;
66927;SDS011;59882;45.624;11.698;2023-11-19T08:42:18;90.93;;;47.15;;
66927;SDS011;59882;45.624;11.698;2023-11-19T08:44:48;39.92;;;22.58;;
66927;SDS011;59882;45.624;11.698;2023-11-19T08:47:15;46.53;;;30.40;;
66927;SDS011;59882;45.624;11.698;2023-11-19T08:49:44;34.53;;;20.50;;
66927;SDS011;59882;45.624;11.698;2023-11-19T08:52:10;43.17;;;24.83;;
66927;SDS011;59882;45.624;11.698;2023-11-19T08:54:36;38.88;;;24.63;;
66927;SDS011;59882;45.624;11.698;2023-11-19T08:57:02;32.43;;;19.60;;
66927;SDS011;59882;45.624;11.698;2023-11-19T08:59:28;25.55;;;18.85;;
66927;SDS011;59882;45.624;11.698;2023-11-19T09:01:54;33.22;;;20.00;;
66927;SDS011;59882;45.624;11.698;2023-11-19T09:04:20;27.27;;;16.77;;
66927;SDS011;59882;45.624;11.698;2023-11-19T09:06:49;36.63;;;21.42;;
66927;SDS011;59882;45.624;11.698;2023-11-19T09:09:14;46.20;;;25.67;;
66927;SDS011;59882;45.624;11.698;2023-11-19T09:11:40;51.83;;;27.70;;
66927;SDS011;59882;45.624;11.698;2023-11-19T09:14:06;30.85;;;16.75;;
66927;SDS011;59882;45.624;11.698;2023-11-19T09:16:32;46.00;;;22.27;;
66927;SDS011;59882;45.624;11.698;2023-11-19T09:18:57;49.55;;;25.75;;
66927;SDS011;59882;45.624;11.698;2023-11-19T09:21:24;47.17;;;24.50;;
66927;SDS011;59882;45.624;11.698;2023-11-19T09:23:52;29.27;;;14.87;;
66927;SDS011;59882;45.624;11.698;2023-11-19T09:26:19;22.13;;;13.70;;
66927;SDS011;59882;45.624;11.698;2023-11-19T09:28:44;31.13;;;16.27;;
66927;SDS011;59882;45.624;11.698;2023-11-19T09:31:13;26.20;;;14.63;;
66927;SDS011;59882;45.624;11.698;2023-11-19T09:33:39;23.45;;;12.68;;
66927;SDS011;59882;45.624;11.698;2023-11-19T09:36:05;22.17;;;13.88;;
66927;SDS011;59882;45.624;11.698;2023-11-19T09:38:31;24.95;;;15.15;;
66927;SDS011;59882;45.624;11.698;2023-11-19T09:40:58;27.87;;;15.33;;
66927;SDS011;59882;45.624;11.698;2023-11-19T09:43:24;27.67;;;18.20;;
66927;SDS011;59882;45.624;11.698;2023-11-19T09:45:53;31.38;;;19.50;;
66927;SDS011;59882;45.624;11.698;2023-11-19T09:48:21;28.43;;;19.17;;
66927;SDS011;59882;45.624;11.698;2023-11-19T09:50:49;31.35;;;18.67;;
66927;SDS011;59882;45.624;11.698;2023-11-19T09:53:16;30.40;;;16.58;;
66927;SDS011;59882;45.624;11.698;2023-11-19T09:55:42;22.37;;;14.90;;
66927;SDS011;59882;45.624;11.698;2023-11-19T09:58:08;21.25;;;13.32;;
66927;SDS011;59882;45.624;11.698;2023-11-19T10:00:36;24.15;;;14.32;;
66927;SDS011;59882;45.624;11.698;2023-11-19T10:03:03;23.20;;;14.82;;
66927;SDS011;59882;45.624;11.698;2023-11-19T10:05:31;23.10;;;13.37;;
66927;SDS011;59882;45.624;11.698;2023-11-19T10:07:56;22.35;;;13.50;;
66927;SDS011;59882;45.624;11.698;2023-11-19T10:10:22;19.63;;;12.53;;
66927;SDS011;59882;45.624;11.698;2023-11-19T10:12:50;23.27;;;12.70;;
66927;SDS011;59882;45.624;11.698;2023-11-19T10:15:20;19.42;;;11.85;;
66927;SDS011;59882;45.624;11.698;2023-11-19T10:17:50;20.77;;;11.70;;
66927;SDS011;59882;45.624;11.698;2023-11-19T10:20:16;21.40;;;12.32;;
66927;SDS011;59882;45.624;11.698;2023-11-19T10:22:42;19.98;;;13.02;;
66927;SDS011;59882;45.624;11.698;2023-11-19T10:28:03;22.40;;;12.37;;
66927;SDS011;59882;45.624;11.698;2023-11-19T10:30:29;24.13;;;13.93;;
66927;SDS011;59882;45.624;11.698;2023-11-19T10:35:27;21.17;;;13.02;;
66927;SDS011;59882;45.624;11.698;2023-11-19T10:37:52;21.38;;;13.07;;
66927;SDS011;59882;45.624;11.698;2023-11-19T10:40:18;21.13;;;13.67;;
66927;SDS011;59882;45.624;11.698;2023-11-19T10:42:44;19.63;;;12.93;;
66927;SDS011;59882;45.624;11.698;2023-11-19T10:45:22;27.63;;;19.53;;
66927;SDS011;59882;45.624;11.698;2023-11-19T10:47:51;25.75;;;16.65;;
66927;SDS011;59882;45.624;11.698;2023-11-19T10:50:17;23.05;;;13.55;;
66927;SDS011;59882;45.624;11.698;2023-11-19T10:52:43;17.57;;;11.20;;
66927;SDS011;59882;45.624;11.698;2023-11-19T10:55:11;17.17;;;11.05;;
66927;SDS011;59882;45.624;11.698;2023-11-19T10:57:40;16.75;;;11.05;;
66927;SDS011;59882;45.624;11.698;2023-11-19T11:00:11;20.20;;;11.70;;
66927;SDS011;59882;45.624;11.698;2023-11-19T11:02:44;17.75;;;11.70;;
66927;SDS011;59882;45.624;11.698;2023-11-19T11:05:12;18.40;;;11.68;;
66927;SDS011;59882;45.624;11.698;2023-11-19T11:07:39;17.33;;;10.68;;
66927;SDS011;59882;45.624;11.698;2023-11-19T11:10:06;15.65;;;10.20;;
66927;SDS011;59882;45.624;11.698;2023-11-19T11:12:37;18.90;;;10.73;;
66927;SDS011;59882;45.624;11.698;2023-11-19T11:15:04;17.63;;;10.77;;
66927;SDS011;59882;45.624;11.698;2023-11-19T11:17:32;17.77;;;11.32;;
66927;SDS011;59882;45.624;11.698;2023-11-19T11:19:59;16.83;;;10.82;;
66927;SDS011;59882;45.624;11.698;2023-11-19T11:22:25;17.40;;;10.93;;
66927;SDS011;59882;45.624;11.698;2023-11-19T11:25:06;17.37;;;10.23;;
66927;SDS011;59882;45.624;11.698;2023-11-19T11:36:58;19.38;;;10.07;;
66927;SDS011;59882;45.624;11.698;2023-11-19T11:39:34;17.30;;;10.23;;
66927;SDS011;59882;45.624;11.698;2023-11-19T11:50:11;16.85;;;10.15;;
66927;SDS011;59882;45.624;11.698;2023-11-19T11:55:25;15.52;;;10.20;;
66927;SDS011;59882;45.624;11.698;2023-11-19T11:57:51;13.23;;;8.77;;
66927;SDS011;59882;45.624;11.698;2023-11-19T12:02:55;16.38;;;10.98;;
66927;SDS011;59882;45.624;11.698;2023-11-19T12:05:22;17.75;;;11.38;;
66927;SDS011;59882;45.624;11.698;2023-11-19T12:07:59;16.77;;;12.07;;
66927;SDS011;59882;45.624;11.698;2023-11-19T12:10:30;16.95;;;10.85;;
66927;SDS011;59882;45.624;11.698;2023-11-19T12:13:10;17.25;;;10.63;;
66927;SDS011;59882;45.624;11.698;2023-11-19T12:18:27;17.42;;;11.48;;
66927;SDS011;59882;45.624;11.698;2023-11-19T12:20:57;16.93;;;11.87;;
66927;SDS011;59882;45.624;11.698;2023-11-19T12:23:28;16.92;;;11.05;;
66927;SDS011;59882;45.624;11.698;2023-11-19T12:25:54;19.92;;;12.77;;
66927;SDS011;59882;45.624;11.698;2023-11-19T12:28:21;17.23;;;12.27;;
66927;SDS011;59882;45.624;11.698;2023-11-19T12:30:49;17.15;;;11.65;;
66927;SDS011;59882;45.624;11.698;2023-11-19T12:33:14;17.93;;;12.23;;
66927;SDS011;59882;45.624;11.698;2023-11-19T12:35:41;18.63;;;12.85;;
66927;SDS011;59882;45.624;11.698;2023-11-19T12:38:08;18.67;;;13.15;;
66927;SDS011;59882;45.624;11.698;2023-11-19T12:40:43;17.98;;;13.13;;
66927;SDS011;59882;45.624;11.698;2023-11-19T12:43:08;17.17;;;12.53;;
66927;SDS011;59882;45.624;11.698;2023-11-19T12:45:35;18.17;;;12.47;;
66927;SDS011;59882;45.624;11.698;2023-11-19T12:48:04;17.03;;;12.70;;
66927;SDS011;59882;45.624;11.698;2023-11-19T12:50:49;17.83;;;12.48;;
66927;SDS011;59882;45.624;11.698;2023-11-19T12:53:16;18.33;;;12.68;;
66927;SDS011;59882;45.624;11.698;2023-11-19T12:55:42;16.60;;;12.60;;
66927;SDS011;59882;45.624;11.698;2023-11-19T12:58:07;15.77;;;12.30;;
66927;SDS011;59882;45.624;11.698;2023-11-19T13:00:33;18.13;;;14.57;;
66927;SDS011;59882;45.624;11.698;2023-11-19T13:02:59;15.18;;;11.93;;
66927;SDS011;59882;45.624;11.698;2023-11-19T13:10:30;15.52;;;12.10;;
66927;SDS011;59882;45.624;11.698;2023-11-19T13:13:19;20.20;;;13.75;;
66927;SDS011;59882;45.624;11.698;2023-11-19T13:15:45;22.63;;;13.43;;
66927;SDS011;59882;45.624;11.698;2023-11-19T13:18:11;17.50;;;14.07;;
66927;SDS011;59882;45.624;11.698;2023-11-19T13:20:39;17.40;;;13.38;;
66927;SDS011;59882;45.624;11.698;2023-11-19T13:23:05;16.48;;;13.10;;
66927;SDS011;59882;45.624;11.698;2023-11-19T13:25:35;15.68;;;12.50;;
66927;SDS011;59882;45.624;11.698;2023-11-19T13:28:01;16.10;;;12.03;;
66927;SDS011;59882;45.624;11.698;2023-11-19T13:30:27;18.45;;;13.50;;
66927;SDS011;59882;45.624;11.698;2023-11-19T13:32:54;17.05;;;12.20;;
66927;SDS011;59882;45.624;11.698;2023-11-19T13:35:20;17.15;;;13.52;;
66927;SDS011;59882;45.624;11.698;2023-11-19T13:37:47;16.40;;;12.77;;
66927;SDS011;59882;45.624;11.698;2023-11-19T13:40:13;18.27;;;13.23;;
66927;SDS011;59882;45.624;11.698;2023-11-19T13:42:40;17.13;;;13.88;;
66927;SDS011;59882;45.624;11.698;2023-11-19T13:45:10;18.60;;;13.40;;
66927;SDS011;59882;45.624;11.698;2023-11-19T13:47:41;18.50;;;13.95;;
66927;SDS011;59882;45.624;11.698;2023-11-19T13:50:12;18.67;;;13.98;;
66927;SDS011;59882;45.624;11.698;2023-11-19T13:52:40;17.45;;;13.73;;
66927;SDS011;59882;45.624;11.698;2023-11-19T13:55:07;20.55;;;14.95;;
66927;SDS011;59882;45.624;11.698;2023-11-19T13:57:40;21.47;;;14.87;;
66927;SDS011;59882;45.624;11.698;2023-11-19T14:00:07;18.23;;;13.55;;
66927;SDS011;59882;45.624;11.698;2023-11-19T14:02:44;19.15;;;13.00;;
66927;SDS011;59882;45.624;11.698;2023-11-19T14:05:11;22.25;;;14.25;;
66927;SDS011;59882;45.624;11.698;2023-11-19T14:07:40;19.65;;;15.15;;
66927;SDS011;59882;45.624;11.698;2023-11-19T14:10:06;19.57;;;14.03;;
66927;SDS011;59882;45.624;11.698;2023-11-19T14:12:34;19.92;;;13.80;;
66927;SDS011;59882;45.624;11.698;2023-11-19T14:15:02;20.27;;;14.02;;
66927;SDS011;59882;45.624;11.698;2023-11-19T14:17:34;21.35;;;15.95;;
66927;SDS011;59882;45.624;11.698;2023-11-19T14:20:03;21.20;;;15.50;;
66927;SDS011;59882;45.624;11.698;2023-11-19T14:22:41;23.27;;;15.60;;
66927;SDS011;59882;45.624;11.698;2023-11-19T14:25:08;22.58;;;16.10;;
66927;SDS011;59882;45.624;11.698;2023-11-19T14:27:35;21.25;;;14.15;;
66927;SDS011;59882;45.624;11.698;2023-11-19T14:30:03;21.10;;;14.50;;
66927;SDS011;59882;45.624;11.698;2023-11-19T14:32:33;21.75;;;15.70;;
66927;SDS011;59882;45.624;11.698;2023-11-19T14:35:02;23.43;;;15.60;;
66927;SDS011;59882;45.624;11.698;2023-11-19T14:37:29;20.73;;;14.23;;
66927;SDS011;59882;45.624;11.698;2023-11-19T14:39:56;23.08;;;14.75;;
66927;SDS011;59882;45.624;11.698;2023-11-19T14:42:22;23.88;;;15.02;;
66927;SDS011;59882;45.624;11.698;2023-11-19T14:44:50;23.77;;;14.85;;